sensor_id;sensor_type;location;lat;lon;timestamp;pressure;altitude;pressure_sealevel;temperature;humidity
54236;BME280;40151;43.606;1.472;2023-03-25T00:02:08;99871.53;;;18.15;54.47
54236;BME280;40151;43.606;1.472;2023-03-25T00:04:34;99873.97;;;18.20;54.10
54236;BME280;40151;43.606;1.472;2023-03-25T00:07:03;99886.28;;;18.21;54.23
54236;BME280;40151;43.606;1.472;2023-03-25T00:09:29;99873.13;;;18.19;54.00
54236;BME280;40151;43.606;1.472;2023-03-25T00:11:54;99873.19;;;18.18;54.08
54236;BME280;40151;43.606;1.472;2023-03-25T00:14:20;99885.56;;;18.17;54.45
54236;BME280;40151;43.606;1.472;2023-03-25T00:16:45;99879.47;;;18.15;54.08
54236;BME280;40151;43.606;1.472;2023-03-25T00:19:13;99887.38;;;18.15;54.12
54236;BME280;40151;43.606;1.472;2023-03-25T00:21:40;99888.38;;;18.13;54.47
54236;BME280;40151;43.606;1.472;2023-03-25T00:24:09;99894.63;;;18.10;54.56
54236;BME280;40151;43.606;1.472;2023-03-25T00:26:36;99887.69;;;18.07;54.39
54236;BME280;40151;43.606;1.472;2023-03-25T00:29:09;99903.44;;;18.10;54.31
54236;BME280;40151;43.606;1.472;2023-03-25T00:31:35;99900.91;;;18.07;54.43
54236;BME280;40151;43.606;1.472;2023-03-25T00:34:00;99900.00;;;18.08;54.47
54236;BME280;40151;43.606;1.472;2023-03-25T00:36:26;99894.63;;;18.10;54.35
54236;BME280;40151;43.606;1.472;2023-03-25T00:38:51;99892.09;;;18.08;54.41
54236;BME280;40151;43.606;1.472;2023-03-25T00:41:22;99892.00;;;18.10;54.37
54236;BME280;40151;43.606;1.472;2023-03-25T00:43:57;99899.13;;;18.08;54.26
54236;BME280;40151;43.606;1.472;2023-03-25T00:46:24;99905.34;;;18.07;54.30
54236;BME280;40151;43.606;1.472;2023-03-25T00:48:51;99915.91;;;18.07;54.00
54236;BME280;40151;43.606;1.472;2023-03-25T00:51:17;99927.41;;;18.04;54.20
54236;BME280;40151;43.606;1.472;2023-03-25T00:53:49;99922.13;;;18.06;54.14
54236;BME280;40151;43.606;1.472;2023-03-25T00:56:17;99915.97;;;18.04;54.30
54236;BME280;40151;43.606;1.472;2023-03-25T00:58:42;99910.69;;;18.04;54.20
54236;BME280;40151;43.606;1.472;2023-03-25T01:01:10;99912.41;;;18.05;54.17
54236;BME280;40151;43.606;1.472;2023-03-25T01:03:38;99915.06;;;18.05;54.10
54236;BME280;40151;43.606;1.472;2023-03-25T01:06:12;99923.97;;;18.02;54.17
54236;BME280;40151;43.606;1.472;2023-03-25T01:08:39;99921.41;;;18.01;54.17
54236;BME280;40151;43.606;1.472;2023-03-25T01:11:05;99917.94;;;17.98;54.22
54236;BME280;40151;43.606;1.472;2023-03-25T01:13:31;99917.16;;;17.96;54.14
54236;BME280;40151;43.606;1.472;2023-03-25T01:15:56;99926.81;;;17.97;54.39
54236;BME280;40151;43.606;1.472;2023-03-25T01:18:22;99925.88;;;17.98;54.46
54236;BME280;40151;43.606;1.472;2023-03-25T01:20:48;99913.66;;;17.96;54.14
54236;BME280;40151;43.606;1.472;2023-03-25T01:23:13;99896.97;;;17.95;54.27
54236;BME280;40151;43.606;1.472;2023-03-25T01:25:39;99895.25;;;17.94;54.31
54236;BME280;40151;43.606;1.472;2023-03-25T01:28:04;99904.06;;;17.93;54.29
54236;BME280;40151;43.606;1.472;2023-03-25T01:30:30;99887.41;;;17.93;53.96
54236;BME280;40151;43.606;1.472;2023-03-25T01:32:55;99891.75;;;17.94;54.32
54236;BME280;40151;43.606;1.472;2023-03-25T01:35:21;99888.22;;;17.93;54.01
54236;BME280;40151;43.606;1.472;2023-03-25T01:37:47;99889.09;;;17.94;54.26
54236;BME280;40151;43.606;1.472;2023-03-25T01:40:18;99890.03;;;17.93;54.35
54236;BME280;40151;43.606;1.472;2023-03-25T01:42:44;99882.94;;;17.93;53.97
54236;BME280;40151;43.606;1.472;2023-03-25T01:45:26;99882.16;;;17.91;54.30
54236;BME280;40151;43.606;1.472;2023-03-25T01:48:07;99878.69;;;17.91;54.29
54236;BME280;40151;43.606;1.472;2023-03-25T01:50:39;99873.47;;;17.89;54.03
54236;BME280;40151;43.606;1.472;2023-03-25T01:53:08;99865.53;;;17.89;54.08
54236;BME280;40151;43.606;1.472;2023-03-25T01:55:35;99876.09;;;17.89;53.93
54236;BME280;40151;43.606;1.472;2023-03-25T01:58:04;99873.56;;;17.86;54.02
54236;BME280;40151;43.606;1.472;2023-03-25T02:00:32;99875.38;;;17.85;54.16
54236;BME280;40151;43.606;1.472;2023-03-25T02:02:58;99871.88;;;17.85;54.06
54236;BME280;40151;43.606;1.472;2023-03-25T02:05:36;99871.81;;;17.87;54.15
54236;BME280;40151;43.606;1.472;2023-03-25T02:08:05;99877.94;;;17.87;54.33
54236;BME280;40151;43.606;1.472;2023-03-25T02:10:31;99871.66;;;17.90;54.27
54236;BME280;40151;43.606;1.472;2023-03-25T02:12:57;99860.38;;;17.86;54.37
54236;BME280;40151;43.606;1.472;2023-03-25T02:15:23;99869.22;;;17.85;54.41
54236;BME280;40151;43.606;1.472;2023-03-25T02:21:00;99866.59;;;17.85;53.99
54236;BME280;40151;43.606;1.472;2023-03-25T02:23:49;99872.78;;;17.84;54.23
54236;BME280;40151;43.606;1.472;2023-03-25T02:32:26;99860.63;;;17.80;54.41
54236;BME280;40151;43.606;1.472;2023-03-25T02:40:11;99850.06;;;17.80;54.00
54236;BME280;40151;43.606;1.472;2023-03-25T02:42:41;99852.78;;;17.78;54.23
54236;BME280;40151;43.606;1.472;2023-03-25T02:45:19;99855.50;;;17.77;54.20
54236;BME280;40151;43.606;1.472;2023-03-25T02:47:51;99848.47;;;17.76;54.46
54236;BME280;40151;43.606;1.472;2023-03-25T02:50:24;99849.28;;;17.78;54.08
54236;BME280;40151;43.606;1.472;2023-03-25T02:52:54;99834.38;;;17.77;54.31
54236;BME280;40151;43.606;1.472;2023-03-25T02:55:22;99834.38;;;17.77;54.28
54236;BME280;40151;43.606;1.472;2023-03-25T02:57:51;99841.47;;;17.75;54.07
54236;BME280;40151;43.606;1.472;2023-03-25T03:00:23;99839.78;;;17.74;54.30
54236;BME280;40151;43.606;1.472;2023-03-25T03:08:07;99835.47;;;17.71;54.34
54236;BME280;40151;43.606;1.472;2023-03-25T03:11:11;99842.41;;;17.74;54.04
54236;BME280;40151;43.606;1.472;2023-03-25T03:16:34;99844.31;;;17.70;54.26
54236;BME280;40151;43.606;1.472;2023-03-25T03:19:04;99843.59;;;17.66;54.14
54236;BME280;40151;43.606;1.472;2023-03-25T03:21:39;99843.59;;;17.66;54.42
54236;BME280;40151;43.606;1.472;2023-03-25T03:29:26;99855.19;;;17.62;54.44
54236;BME280;40151;43.606;1.472;2023-03-25T03:31:57;99856.13;;;17.61;54.10
54236;BME280;40151;43.606;1.472;2023-03-25T03:34:26;99859.69;;;17.60;54.08
54236;BME280;40151;43.606;1.472;2023-03-25T03:36:56;99854.41;;;17.60;54.33
54236;BME280;40151;43.606;1.472;2023-03-25T03:39:35;99864.94;;;17.60;54.41
54236;BME280;40151;43.606;1.472;2023-03-25T03:44:53;99864.16;;;17.58;54.22
54236;BME280;40151;43.606;1.472;2023-03-25T03:47:23;99872.13;;;17.56;54.03
54236;BME280;40151;43.606;1.472;2023-03-25T03:49:57;99879.91;;;17.60;54.04
54236;BME280;40151;43.606;1.472;2023-03-25T03:52:33;99880.06;;;17.56;54.13
54236;BME280;40151;43.606;1.472;2023-03-25T03:55:15;99880.91;;;17.57;54.31
54236;BME280;40151;43.606;1.472;2023-03-25T03:57:56;99862.56;;;17.54;53.97
54236;BME280;40151;43.606;1.472;2023-03-25T04:00:37;99872.19;;;17.55;54.31
54236;BME280;40151;43.606;1.472;2023-03-25T04:03:13;99872.09;;;17.58;54.16
54236;BME280;40151;43.606;1.472;2023-03-25T04:05:42;99877.47;;;17.55;54.28
54236;BME280;40151;43.606;1.472;2023-03-25T04:08:24;99860.84;;;17.53;54.48
54236;BME280;40151;43.606;1.472;2023-03-25T04:11:00;99862.66;;;17.51;54.39
54236;BME280;40151;43.606;1.472;2023-03-25T04:13:32;99859.09;;;17.52;54.43
54236;BME280;40151;43.606;1.472;2023-03-25T04:15:59;99853.97;;;17.49;54.09
54236;BME280;40151;43.606;1.472;2023-03-25T04:18:25;99865.44;;;17.48;54.03
54236;BME280;40151;43.606;1.472;2023-03-25T04:20:53;99862.81;;;17.48;54.42
54236;BME280;40151;43.606;1.472;2023-03-25T04:23:18;99869.84;;;17.47;54.09
54236;BME280;40151;43.606;1.472;2023-03-25T04:25:45;99861.00;;;17.48;54.45
54236;BME280;40151;43.606;1.472;2023-03-25T04:28:14;99864.56;;;17.47;54.13
54236;BME280;40151;43.606;1.472;2023-03-25T04:30:42;99865.44;;;17.48;54.44
54236;BME280;40151;43.606;1.472;2023-03-25T04:33:09;99869.84;;;17.47;54.32
54236;BME280;40151;43.606;1.472;2023-03-25T04:35:36;99872.44;;;17.49;54.14
54236;BME280;40151;43.606;1.472;2023-03-25T04:38:02;99873.38;;;17.48;54.42
54236;BME280;40151;43.606;1.472;2023-03-25T04:40:28;99865.44;;;17.48;54.09
54236;BME280;40151;43.606;1.472;2023-03-25T04:42:53;99874.28;;;17.47;54.26
54236;BME280;40151;43.606;1.472;2023-03-25T04:45:21;99872.53;;;17.45;54.07
54236;BME280;40151;43.606;1.472;2023-03-25T04:47:48;99878.75;;;17.44;54.13
54236;BME280;40151;43.606;1.472;2023-03-25T04:52:50;99881.53;;;17.41;54.15
54236;BME280;40151;43.606;1.472;2023-03-25T04:55:17;99885.88;;;17.42;54.44
54236;BME280;40151;43.606;1.472;2023-03-25T04:57:48;99889.44;;;17.41;54.39
54236;BME280;40151;43.606;1.472;2023-03-25T05:00:15;99889.44;;;17.41;54.05
54236;BME280;40151;43.606;1.472;2023-03-25T05:02:43;99892.19;;;17.38;54.03
54236;BME280;40151;43.606;1.472;2023-03-25T05:05:10;99896.53;;;17.39;54.40
54236;BME280;40151;43.606;1.472;2023-03-25T05:07:52;99901.88;;;17.38;54.15
54236;BME280;40151;43.606;1.472;2023-03-25T05:10:23;99886.91;;;17.38;53.96
54236;BME280;40151;43.606;1.472;2023-03-25T05:13:05;99876.50;;;17.35;54.27
54236;BME280;40151;43.606;1.472;2023-03-25T05:15:33;99874.75;;;17.34;54.16
54236;BME280;40151;43.606;1.472;2023-03-25T05:18:08;99876.50;;;17.35;54.32
54236;BME280;40151;43.606;1.472;2023-03-25T05:20:38;99881.75;;;17.35;54.10
54236;BME280;40151;43.606;1.472;2023-03-25T05:23:08;99881.75;;;17.35;54.26
54236;BME280;40151;43.606;1.472;2023-03-25T05:25:39;99887.09;;;17.34;54.32
54236;BME280;40151;43.606;1.472;2023-03-25T05:28:06;99888.03;;;17.33;54.18
54236;BME280;40151;43.606;1.472;2023-03-25T05:30:35;99902.00;;;17.35;54.29
54236;BME280;40151;43.606;1.472;2023-03-25T05:33:04;99895.94;;;17.33;54.07
54236;BME280;40151;43.606;1.472;2023-03-25T05:35:29;99905.66;;;17.30;54.26
54236;BME280;40151;43.606;1.472;2023-03-25T05:37:55;99910.88;;;17.32;54.14
54236;BME280;40151;43.606;1.472;2023-03-25T05:40:21;99914.44;;;17.31;54.33
54236;BME280;40151;43.606;1.472;2023-03-25T05:42:46;99904.69;;;17.33;54.11
54236;BME280;40151;43.606;1.472;2023-03-25T05:45:14;99911.81;;;17.31;54.01
54236;BME280;40151;43.606;1.472;2023-03-25T05:47:40;99922.34;;;17.31;54.32
54236;BME280;40151;43.606;1.472;2023-03-25T05:50:06;99914.44;;;17.31;53.96
54236;BME280;40151;43.606;1.472;2023-03-25T05:52:32;99918.94;;;17.29;54.47
54236;BME280;40151;43.606;1.472;2023-03-25T05:54:57;99923.28;;;17.30;53.89
54236;BME280;40151;43.606;1.472;2023-03-25T05:57:23;99925.09;;;17.28;54.06
54236;BME280;40151;43.606;1.472;2023-03-25T05:59:48;99928.66;;;17.27;54.25
54236;BME280;40151;43.606;1.472;2023-03-25T06:02:15;99921.72;;;17.24;54.00
54236;BME280;40151;43.606;1.472;2023-03-25T06:04:41;99927.09;;;17.23;54.42
54236;BME280;40151;43.606;1.472;2023-03-25T06:07:11;99929.72;;;17.23;54.15
54236;BME280;40151;43.606;1.472;2023-03-25T06:09:47;99926.06;;;17.25;54.31
54236;BME280;40151;43.606;1.472;2023-03-25T06:12:15;99927.88;;;17.25;54.15
54236;BME280;40151;43.606;1.472;2023-03-25T06:14:42;99934.00;;;17.25;54.26
54236;BME280;40151;43.606;1.472;2023-03-25T06:17:10;99930.56;;;17.23;54.32
54236;BME280;40151;43.606;1.472;2023-03-25T06:19:35;99934.00;;;17.25;54.06
54236;BME280;40151;43.606;1.472;2023-03-25T06:22:05;99936.69;;;17.24;54.20
54236;BME280;40151;43.606;1.472;2023-03-25T06:24:34;99941.09;;;17.23;54.03
54236;BME280;40151;43.606;1.472;2023-03-25T06:27:00;99950.81;;;17.23;54.42
54236;BME280;40151;43.606;1.472;2023-03-25T06:29:25;99941.97;;;17.24;54.11
54236;BME280;40151;43.606;1.472;2023-03-25T06:31:51;99937.53;;;17.24;54.44
54236;BME280;40151;43.606;1.472;2023-03-25T06:34:17;99941.06;;;17.25;54.26
54236;BME280;40151;43.606;1.472;2023-03-25T06:36:42;99942.78;;;17.26;54.18
54236;BME280;40151;43.606;1.472;2023-03-25T06:39:07;99944.53;;;17.25;54.12
54236;BME280;40151;43.606;1.472;2023-03-25T06:41:34;99955.97;;;17.26;53.87
54236;BME280;40151;43.606;1.472;2023-03-25T06:44:01;99962.03;;;17.28;54.14
54236;BME280;40151;43.606;1.472;2023-03-25T06:46:26;99957.66;;;17.27;54.04
54236;BME280;40151;43.606;1.472;2023-03-25T06:48:51;99963.91;;;17.24;54.00
54236;BME280;40151;43.606;1.472;2023-03-25T06:51:17;99962.16;;;17.25;53.95
54236;BME280;40151;43.606;1.472;2023-03-25T06:53:42;99961.22;;;17.26;54.15
54236;BME280;40151;43.606;1.472;2023-03-25T06:56:08;99965.72;;;17.24;54.28
54236;BME280;40151;43.606;1.472;2023-03-25T06:58:33;99960.34;;;17.25;54.12
54236;BME280;40151;43.606;1.472;2023-03-25T07:01:00;99958.59;;;17.26;54.16
54236;BME280;40151;43.606;1.472;2023-03-25T07:03:30;99956.00;;;17.24;54.07
54236;BME280;40151;43.606;1.472;2023-03-25T07:05:55;99954.19;;;17.26;53.97
54236;BME280;40151;43.606;1.472;2023-03-25T07:08:20;99959.38;;;17.28;54.06
54236;BME280;40151;43.606;1.472;2023-03-25T07:10:46;99954.13;;;17.28;54.02
54236;BME280;40151;43.606;1.472;2023-03-25T07:13:11;99956.84;;;17.26;53.96
54236;BME280;40151;43.606;1.472;2023-03-25T07:15:37;99956.66;;;17.31;54.14
54236;BME280;40151;43.606;1.472;2023-03-25T07:18:03;99958.38;;;17.32;54.10
54236;BME280;40151;43.606;1.472;2023-03-25T07:20:28;99961.00;;;17.32;53.67
54236;BME280;40151;43.606;1.472;2023-03-25T07:22:54;99965.44;;;17.31;53.71
54236;BME280;40151;43.606;1.472;2023-03-25T07:25:20;99961.13;;;17.29;53.81
54236;BME280;40151;43.606;1.472;2023-03-25T07:27:46;99958.38;;;17.32;53.97
54236;BME280;40151;43.606;1.472;2023-03-25T07:30:12;99968.88;;;17.34;53.93
54236;BME280;40151;43.606;1.472;2023-03-25T07:32:37;99965.31;;;17.35;54.02
54236;BME280;40151;43.606;1.472;2023-03-25T07:35:05;99966.19;;;17.35;53.73
54236;BME280;40151;43.606;1.472;2023-03-25T07:37:30;99968.00;;;17.33;53.50
54236;BME280;40151;43.606;1.472;2023-03-25T07:39:56;99976.72;;;17.35;53.91
54236;BME280;40151;43.606;1.472;2023-03-25T07:42:21;99974.84;;;17.39;53.73
54236;BME280;40151;43.606;1.472;2023-03-25T07:44:47;99969.59;;;17.37;53.64
54236;BME280;40151;43.606;1.472;2023-03-25T07:47:12;99965.94;;;17.41;53.61
54236;BME280;40151;43.606;1.472;2023-03-25T07:49:38;99971.22;;;17.41;53.70
54236;BME280;40151;43.606;1.472;2023-03-25T07:52:07;99970.97;;;17.48;53.45
54236;BME280;40151;43.606;1.472;2023-03-25T07:54:32;99974.47;;;17.48;53.44
54236;BME280;40151;43.606;1.472;2023-03-25T07:56:57;99974.41;;;17.50;53.35
54236;BME280;40151;43.606;1.472;2023-03-25T07:59:23;99970.00;;;17.50;53.48
54236;BME280;40151;43.606;1.472;2023-03-25T08:01:50;99973.44;;;17.52;53.49
54236;BME280;40151;43.606;1.472;2023-03-25T08:04:15;99956.63;;;17.55;53.42
54236;BME280;40151;43.606;1.472;2023-03-25T08:06:41;99949.63;;;17.54;53.35
54236;BME280;40151;43.606;1.472;2023-03-25T08:09:06;99948.66;;;17.56;53.01
54236;BME280;40151;43.606;1.472;2023-03-25T08:11:32;99959.16;;;17.58;53.33
54236;BME280;40151;43.606;1.472;2023-03-25T08:13:57;99966.06;;;17.61;53.28
54236;BME280;40151;43.606;1.472;2023-03-25T08:16:22;99967.97;;;17.57;53.03
54236;BME280;40151;43.606;1.472;2023-03-25T08:18:48;99963.53;;;17.59;53.36
54236;BME280;40151;43.606;1.472;2023-03-25T08:21:18;99966.03;;;17.62;53.00
54236;BME280;40151;43.606;1.472;2023-03-25T08:23:52;99962.59;;;17.60;53.41
54236;BME280;40151;43.606;1.472;2023-03-25T08:26:24;99971.25;;;17.64;53.07
54236;BME280;40151;43.606;1.472;2023-03-25T08:28:51;99963.34;;;17.64;53.06
54236;BME280;40151;43.606;1.472;2023-03-25T08:31:19;99965.91;;;17.65;52.99
54236;BME280;40151;43.606;1.472;2023-03-25T08:33:46;99959.72;;;17.66;53.02
54236;BME280;40151;43.606;1.472;2023-03-25T08:36:11;99962.41;;;17.65;52.90
54236;BME280;40151;43.606;1.472;2023-03-25T08:38:40;99954.44;;;17.66;53.12
54236;BME280;40151;43.606;1.472;2023-03-25T08:41:06;99958.78;;;17.67;53.01
54236;BME280;40151;43.606;1.472;2023-03-25T08:43:31;99965.69;;;17.71;53.19
54236;BME280;40151;43.606;1.472;2023-03-25T08:45:56;99962.22;;;17.69;53.03
54236;BME280;40151;43.606;1.472;2023-03-25T08:48:23;99955.13;;;17.71;53.05
54236;BME280;40151;43.606;1.472;2023-03-25T08:50:49;99957.63;;;17.75;53.21
54236;BME280;40151;43.606;1.472;2023-03-25T08:53:14;99947.88;;;17.77;52.89
54236;BME280;40151;43.606;1.472;2023-03-25T08:55:40;99951.38;;;17.77;52.90
54236;BME280;40151;43.606;1.472;2023-03-25T08:58:05;99941.69;;;17.78;53.11
54236;BME280;40151;43.606;1.472;2023-03-25T09:00:33;99950.53;;;17.77;52.87
54236;BME280;40151;43.606;1.472;2023-03-25T09:02:59;99953.16;;;17.77;52.69
54236;BME280;40151;43.606;1.472;2023-03-25T09:05:25;99953.94;;;17.79;52.68
54236;BME280;40151;43.606;1.472;2023-03-25T09:07:51;99955.66;;;17.80;52.84
54236;BME280;40151;43.606;1.472;2023-03-25T09:10:17;99946.81;;;17.81;52.81
54236;BME280;40151;43.606;1.472;2023-03-25T09:12:42;99945.06;;;17.81;52.71
54236;BME280;40151;43.606;1.472;2023-03-25T09:15:09;99946.81;;;17.81;53.14
54236;BME280;40151;43.606;1.472;2023-03-25T09:17:35;99953.84;;;17.82;52.85
54236;BME280;40151;43.606;1.472;2023-03-25T09:20:01;99951.13;;;17.83;52.99
54236;BME280;40151;43.606;1.472;2023-03-25T09:22:26;99953.69;;;17.85;53.00
54236;BME280;40151;43.606;1.472;2023-03-25T09:24:52;99939.56;;;17.86;53.10
54236;BME280;40151;43.606;1.472;2023-03-25T09:27:17;99922.81;;;17.87;53.12
54236;BME280;40151;43.606;1.472;2023-03-25T09:29:42;99927.19;;;17.88;52.65
54236;BME280;40151;43.606;1.472;2023-03-25T09:32:08;99935.91;;;17.90;52.96
54236;BME280;40151;43.606;1.472;2023-03-25T09:34:33;99935.91;;;17.90;52.70
54236;BME280;40151;43.606;1.472;2023-03-25T09:37:00;99927.94;;;17.92;52.67
54236;BME280;40151;43.606;1.472;2023-03-25T09:39:27;99933.13;;;17.93;52.80
54236;BME280;40151;43.606;1.472;2023-03-25T09:47:30;99912.81;;;17.95;52.97
54236;BME280;40151;43.606;1.472;2023-03-25T09:50:00;99915.41;;;17.97;52.95
54236;BME280;40151;43.606;1.472;2023-03-25T09:52:58;99909.13;;;18.00;52.72
54236;BME280;40151;43.606;1.472;2023-03-25T09:55:30;99906.50;;;18.00;52.79
54236;BME280;40151;43.606;1.472;2023-03-25T09:58:08;99916.97;;;18.01;52.97
54236;BME280;40151;43.606;1.472;2023-03-25T10:00:43;99906.34;;;18.03;52.89
54236;BME280;40151;43.606;1.472;2023-03-25T10:06:12;99907.09;;;18.06;52.47
54236;BME280;40151;43.606;1.472;2023-03-25T10:12:00;99914.09;;;18.07;52.65
54236;BME280;40151;43.606;1.472;2023-03-25T10:14:58;99911.41;;;18.09;52.50
54236;BME280;40151;43.606;1.472;2023-03-25T10:17:48;99904.25;;;18.11;52.57
54236;BME280;40151;43.606;1.472;2023-03-25T10:23:29;99897.09;;;18.15;52.74
54236;BME280;40151;43.606;1.472;2023-03-25T10:26:04;99896.22;;;18.14;52.81
54236;BME280;40151;43.606;1.472;2023-03-25T10:28:35;99884.69;;;18.17;52.54
54236;BME280;40151;43.606;1.472;2023-03-25T10:31:03;99874.97;;;18.17;52.58
54236;BME280;40151;43.606;1.472;2023-03-25T10:33:51;99878.41;;;18.19;52.85
54236;BME280;40151;43.606;1.472;2023-03-25T10:36:31;99869.56;;;18.20;52.50
54236;BME280;40151;43.606;1.472;2023-03-25T10:38:58;99874.84;;;18.20;52.67
54236;BME280;40151;43.606;1.472;2023-03-25T10:41:30;99878.25;;;18.22;52.69
54236;BME280;40151;43.606;1.472;2023-03-25T10:43:59;99878.25;;;18.22;52.73
54236;BME280;40151;43.606;1.472;2023-03-25T10:48:50;99865.88;;;18.24;52.50
54236;BME280;40151;43.606;1.472;2023-03-25T10:51:18;99874.56;;;18.27;52.49
54236;BME280;40151;43.606;1.472;2023-03-25T10:53:48;99865.72;;;18.28;52.66
54236;BME280;40151;43.606;1.472;2023-03-25T10:56:41;99875.28;;;18.30;52.58
54236;BME280;40151;43.606;1.472;2023-03-25T10:59:28;99871.81;;;18.30;52.82
54236;BME280;40151;43.606;1.472;2023-03-25T11:01:55;99871.66;;;18.33;52.83
54236;BME280;40151;43.606;1.472;2023-03-25T11:04:32;99869.03;;;18.33;52.75
54236;BME280;40151;43.606;1.472;2023-03-25T11:06:59;99876.03;;;18.34;52.54
54236;BME280;40151;43.606;1.472;2023-03-25T11:09:26;99867.19;;;18.35;52.54
54236;BME280;40151;43.606;1.472;2023-03-25T11:11:55;99871.47;;;18.37;52.90
54236;BME280;40151;43.606;1.472;2023-03-25T11:14:25;99860.03;;;18.37;52.81
54236;BME280;40151;43.606;1.472;2023-03-25T11:17:14;99852.91;;;18.39;52.81
54236;BME280;40151;43.606;1.472;2023-03-25T11:19:58;99857.19;;;18.42;52.80
54236;BME280;40151;43.606;1.472;2023-03-25T11:22:30;99850.97;;;18.43;52.71
54236;BME280;40151;43.606;1.472;2023-03-25T11:25:03;99843.94;;;18.43;52.56
54236;BME280;40151;43.606;1.472;2023-03-25T11:27:39;99845.63;;;18.44;52.70
54236;BME280;40151;43.606;1.472;2023-03-25T11:30:15;99842.06;;;18.45;52.81
54236;BME280;40151;43.606;1.472;2023-03-25T11:32:41;99833.19;;;18.46;53.02
54236;BME280;40151;43.606;1.472;2023-03-25T11:37:47;99808.53;;;18.47;52.83
54236;BME280;40151;43.606;1.472;2023-03-25T11:40:15;99813.66;;;18.50;52.71
54236;BME280;40151;43.606;1.472;2023-03-25T11:42:43;99789.88;;;18.50;52.84
54236;BME280;40151;43.606;1.472;2023-03-25T11:45:23;99782.81;;;18.51;52.73
54236;BME280;40151;43.606;1.472;2023-03-25T11:47:49;99788.03;;;18.52;52.59
54236;BME280;40151;43.606;1.472;2023-03-25T11:50:23;99787.00;;;18.55;52.74
54236;BME280;40151;43.606;1.472;2023-03-25T11:52:58;99782.59;;;18.56;52.97
54236;BME280;40151;43.606;1.472;2023-03-25T11:55:27;99785.19;;;18.57;53.02
54236;BME280;40151;43.606;1.472;2023-03-25T11:57:55;99772.78;;;18.58;52.68
54236;BME280;40151;43.606;1.472;2023-03-25T12:03:20;99768.25;;;18.61;53.08
54236;BME280;40151;43.606;1.472;2023-03-25T12:06:01;99753.22;;;18.62;52.90
54236;BME280;40151;43.606;1.472;2023-03-25T12:08:39;99749.66;;;18.63;53.15
54236;BME280;40151;43.606;1.472;2023-03-25T12:11:10;99754.94;;;18.63;52.75
54236;BME280;40151;43.606;1.472;2023-03-25T12:13:47;99752.19;;;18.66;52.72
54236;BME280;40151;43.606;1.472;2023-03-25T12:21:58;99744.88;;;18.71;52.82
54236;BME280;40151;43.606;1.472;2023-03-25T12:29:49;99715.66;;;18.74;52.92
54236;BME280;40151;43.606;1.472;2023-03-25T12:40:49;99706.66;;;18.78;52.86
54236;BME280;40151;43.606;1.472;2023-03-25T12:46:07;99687.97;;;18.82;53.07
54236;BME280;40151;43.606;1.472;2023-03-25T13:07:44;99646.19;;;18.90;53.19
54236;BME280;40151;43.606;1.472;2023-03-25T13:10:21;99644.31;;;18.92;53.11
54236;BME280;40151;43.606;1.472;2023-03-25T13:12:55;99633.66;;;18.94;53.43
54236;BME280;40151;43.606;1.472;2023-03-25T13:15:35;99621.31;;;18.94;53.35
54236;BME280;40151;43.606;1.472;2023-03-25T13:18:08;99618.56;;;18.96;53.30
54236;BME280;40151;43.606;1.472;2023-03-25T13:20:59;99625.56;;;18.97;53.08
54236;BME280;40151;43.606;1.472;2023-03-25T13:23:26;99618.50;;;18.97;52.95
54236;BME280;40151;43.606;1.472;2023-03-25T13:25:56;99609.63;;;18.98;53.28
54236;BME280;40151;43.606;1.472;2023-03-25T13:28:27;99603.41;;;18.99;53.24
54236;BME280;40151;43.606;1.472;2023-03-25T13:30:54;99603.25;;;19.02;52.96
54236;BME280;40151;43.606;1.472;2023-03-25T13:33:31;99591.78;;;19.03;53.33
54236;BME280;40151;43.606;1.472;2023-03-25T13:36:14;99588.19;;;19.04;53.45
54236;BME280;40151;43.606;1.472;2023-03-25T13:38:47;99599.56;;;19.07;53.07
54236;BME280;40151;43.606;1.472;2023-03-25T13:41:22;99604.84;;;19.07;53.09
54236;BME280;40151;43.606;1.472;2023-03-25T13:44:15;99599.47;;;19.08;53.27
54236;BME280;40151;43.606;1.472;2023-03-25T13:49:45;99598.44;;;19.11;53.17
54236;BME280;40151;43.606;1.472;2023-03-25T13:52:13;99599.25;;;19.13;53.24
54236;BME280;40151;43.606;1.472;2023-03-25T13:54:53;99588.66;;;19.13;53.30
54236;BME280;40151;43.606;1.472;2023-03-25T13:57:46;99591.22;;;19.14;53.43
54236;BME280;40151;43.606;1.472;2023-03-25T14:03:25;99600.78;;;19.17;53.32
54236;BME280;40151;43.606;1.472;2023-03-25T14:09:44;99592.69;;;19.20;53.58
54236;BME280;40151;43.606;1.472;2023-03-25T14:14:26;99577.59;;;19.22;53.32
54236;BME280;40151;43.606;1.472;2023-03-25T14:16:55;99567.00;;;19.22;53.47
54236;BME280;40151;43.606;1.472;2023-03-25T14:19:34;99559.00;;;19.24;53.62
54236;BME280;40151;43.606;1.472;2023-03-25T14:22:09;99556.28;;;19.25;53.63
54236;BME280;40151;43.606;1.472;2023-03-25T14:24:37;99556.28;;;19.25;53.49
54236;BME280;40151;43.606;1.472;2023-03-25T14:27:04;99559.69;;;19.27;53.30
54236;BME280;40151;43.606;1.472;2023-03-25T14:32:45;99557.84;;;19.29;53.39
54236;BME280;40151;43.606;1.472;2023-03-25T14:34:47;99559.56;;;19.30;53.41
54236;BME280;40151;43.606;1.472;2023-03-25T14:37:23;99552.38;;;19.32;53.56
54236;BME280;40151;43.606;1.472;2023-03-25T14:39:55;99552.38;;;19.32;53.42
54236;BME280;40151;43.606;1.472;2023-03-25T14:42:38;99556.72;;;19.34;53.73
54236;BME280;40151;43.606;1.472;2023-03-25T14:47:56;99553.00;;;19.38;53.56
54236;BME280;40151;43.606;1.472;2023-03-25T14:52:56;99536.19;;;19.39;53.55
54236;BME280;40151;43.606;1.472;2023-03-25T14:55:35;99531.75;;;19.39;53.74
54236;BME280;40151;43.606;1.472;2023-03-25T14:58:23;99523.72;;;19.41;53.33
54236;BME280;40151;43.606;1.472;2023-03-25T15:01:01;99515.69;;;19.42;53.35
54236;BME280;40151;43.606;1.472;2023-03-25T15:03:46;99509.47;;;19.43;53.36
54236;BME280;40151;43.606;1.472;2023-03-25T15:06:19;99510.25;;;19.45;53.44
54236;BME280;40151;43.606;1.472;2023-03-25T15:08:55;99506.66;;;19.47;53.40
54236;BME280;40151;43.606;1.472;2023-03-25T15:11:30;99496.94;;;19.47;53.64
54236;BME280;40151;43.606;1.472;2023-03-25T15:14:00;99491.66;;;19.47;53.55